createdAt,value
2018-08-23T00:00:16.901Z,0.00
2018-08-23T00:01:16.894Z,0.00
2018-08-23T00:02:16.880Z,0.00
2018-08-23T00:03:16.872Z,0.00
2018-08-23T00:04:16.874Z,0.00
2018-08-23T00:05:16.847Z,0.00
2018-08-23T00:06:16.835Z,0.00
2018-08-23T00:07:16.827Z,0.00
2018-08-23T00:08:16.838Z,0.00
2018-08-23T00:09:16.841Z,0.00
2018-08-23T00:10:16.796Z,0.00
2018-08-23T00:11:16.783Z,0.00
2018-08-23T00:12:16.777Z,0.00
2018-08-23T00:13:16.761Z,0.00
2018-08-23T00:14:16.747Z,0.00
2018-08-23T00:15:16.764Z,0.00
2018-08-23T00:16:16.766Z,0.00
2018-08-23T00:17:16.721Z,0.00
2018-08-23T00:18:16.704Z,0.00
2018-08-23T00:19:16.694Z,0.00
2018-08-23T00:20:16.698Z,0.00
2018-08-23T00:21:16.671Z,0.00
2018-08-23T00:22:16.667Z,0.00
2018-08-23T00:23:16.653Z,0.00
2018-08-23T00:24:16.641Z,0.00
2018-08-23T00:25:16.643Z,0.00
2018-08-23T00:26:16.618Z,0.00
2018-08-23T00:27:16.691Z,0.00
2018-08-23T00:28:16.596Z,0.00
2018-08-23T00:29:16.583Z,0.00
2018-08-23T00:30:16.592Z,0.00
2018-08-23T00:31:16.564Z,0.00
2018-08-23T00:32:16.551Z,0.00
2018-08-23T00:33:16.539Z,0.00
2018-08-23T00:34:16.531Z,0.00
2018-08-23T00:35:16.519Z,0.00
2018-08-23T00:36:16.523Z,0.00
2018-08-23T00:37:16.508Z,0.00
2018-08-23T00:38:16.489Z,0.00
2018-08-23T00:39:16.476Z,0.00
2018-08-23T00:40:16.465Z,0.00
2018-08-23T00:41:16.472Z,0.00
2018-08-23T00:42:16.440Z,0.00
2018-08-23T00:43:16.448Z,0.00
2018-08-23T00:44:16.424Z,0.00
2018-08-23T00:45:16.411Z,0.00
2018-08-23T00:46:16.418Z,0.00
2018-08-23T00:47:16.386Z,0.00
2018-08-23T00:48:16.394Z,0.00
2018-08-23T00:49:16.368Z,0.00
2018-08-23T00:50:16.356Z,0.00
2018-08-23T00:51:16.362Z,0.00
2018-08-23T00:52:16.339Z,0.00
2018-08-23T00:53:16.323Z,0.00
2018-08-23T00:54:16.376Z,0.00
2018-08-23T00:55:16.299Z,0.00
2018-08-23T00:56:16.291Z,0.00
2018-08-23T00:57:16.319Z,0.00
2018-08-23T00:58:16.268Z,0.00
2018-08-23T00:59:16.258Z,0.00
2018-08-23T01:00:16.248Z,0.00
2018-08-23T01:01:16.233Z,0.00
2018-08-23T01:02:16.226Z,0.00
2018-08-23T01:03:16.280Z,0.00
2018-08-23T01:04:16.203Z,0.00
2018-08-23T01:05:16.192Z,0.00
2018-08-23T01:06:16.183Z,0.00
2018-08-23T01:07:16.171Z,0.00
2018-08-23T01:08:16.159Z,0.00
2018-08-23T01:09:16.165Z,0.00
2018-08-23T01:10:16.135Z,0.00
2018-08-23T01:11:16.124Z,0.00
2018-08-23T01:12:16.115Z,0.00
2018-08-23T01:13:16.107Z,0.00
2018-08-23T01:14:16.127Z,0.00
2018-08-23T01:15:16.080Z,0.00
2018-08-23T01:16:16.069Z,0.00
2018-08-23T01:17:16.065Z,0.00
2018-08-23T01:18:16.048Z,0.00
2018-08-23T01:19:16.042Z,0.00
2018-08-23T01:20:16.047Z,0.00
2018-08-23T01:21:16.015Z,0.00
2018-08-23T01:22:16.008Z,0.00
2018-08-23T01:23:15.992Z,0.00
2018-08-23T01:24:15.999Z,0.00
2018-08-23T01:25:15.985Z,0.00
2018-08-23T01:26:15.961Z,0.00
2018-08-23T01:27:15.950Z,0.00
2018-08-23T01:28:15.941Z,0.00
2018-08-23T01:29:15.928Z,0.00
2018-08-23T01:30:15.931Z,0.00
2018-08-23T01:31:15.908Z,0.00
2018-08-23T01:32:15.898Z,0.00
2018-08-23T01:33:15.883Z,0.00
2018-08-23T01:34:15.875Z,0.00
2018-08-23T01:35:15.879Z,0.00
2018-08-23T01:36:15.865Z,0.00
2018-08-23T01:37:15.844Z,0.00
2018-08-23T01:38:15.833Z,0.00
2018-08-23T01:39:15.817Z,0.00
2018-08-23T01:40:15.808Z,0.00
2018-08-23T01:41:15.812Z,0.00
2018-08-23T01:42:15.786Z,0.00
2018-08-23T01:43:15.796Z,0.00
2018-08-23T01:44:15.764Z,0.00
2018-08-23T01:45:15.753Z,0.00
2018-08-23T01:46:15.771Z,0.00
2018-08-23T01:47:15.733Z,0.00
2018-08-23T01:48:15.723Z,0.00
2018-08-23T01:49:15.712Z,0.00
2018-08-23T01:50:15.699Z,0.00
2018-08-23T01:51:15.688Z,0.00
2018-08-23T01:52:15.694Z,0.00
2018-08-23T01:53:15.668Z,0.00
2018-08-23T01:54:15.656Z,0.00
2018-08-23T01:55:15.648Z,0.00
2018-08-23T01:56:15.635Z,0.00
2018-08-23T01:57:15.642Z,0.00
2018-08-23T01:58:15.613Z,0.00
2018-08-23T01:59:15.603Z,0.00
2018-08-23T02:00:15.593Z,0.00
2018-08-23T02:01:15.583Z,0.00
2018-08-23T02:02:15.587Z,0.00
2018-08-23T02:03:15.557Z,0.00
2018-08-23T02:04:15.568Z,0.00
2018-08-23T02:05:15.537Z,0.00
2018-08-23T02:06:15.525Z,0.00
2018-08-23T02:07:15.523Z,0.00
2018-08-23T02:08:15.506Z,0.00
2018-08-23T02:09:15.527Z,0.00
2018-08-23T02:10:15.485Z,0.00
2018-08-23T02:11:15.470Z,0.00
2018-08-23T02:12:15.459Z,0.00
2018-08-23T02:13:15.455Z,0.00
2018-08-23T02:14:15.439Z,0.00
2018-08-23T02:15:15.445Z,0.00
2018-08-23T02:16:15.416Z,0.00
2018-08-23T02:17:15.408Z,0.00
2018-08-23T02:18:15.420Z,0.00
2018-08-23T02:19:15.383Z,0.00
2018-08-23T02:20:15.380Z,0.00
2018-08-23T02:21:15.364Z,0.00
2018-08-23T02:22:15.354Z,0.00
2018-08-23T02:23:15.339Z,0.00
2018-08-23T02:24:15.343Z,0.00
2018-08-23T02:25:15.325Z,0.00
2018-08-23T02:26:15.324Z,0.00
2018-08-23T02:27:15.296Z,0.00
2018-08-23T02:28:15.286Z,0.00
2018-08-23T02:29:15.289Z,0.00
2018-08-23T02:30:15.266Z,0.00
2018-08-23T02:31:15.254Z,0.00
2018-08-23T02:32:15.242Z,0.00
2018-08-23T02:33:15.237Z,0.00
2018-08-23T02:34:15.240Z,0.00
2018-08-23T02:35:15.223Z,0.00
2018-08-23T02:36:15.201Z,0.00
2018-08-23T02:37:15.187Z,0.00
2018-08-23T02:38:15.217Z,0.00
2018-08-23T02:39:15.179Z,0.00
2018-08-23T02:40:15.177Z,0.00
2018-08-23T02:41:15.145Z,0.00
2018-08-23T02:42:15.130Z,0.00
2018-08-23T02:43:15.119Z,0.00
2018-08-23T02:44:15.109Z,0.00
2018-08-23T02:45:15.097Z,0.00
2018-08-23T02:46:15.104Z,0.00
2018-08-23T02:47:15.076Z,0.00
2018-08-23T02:48:15.080Z,0.00
2018-08-23T02:49:15.058Z,0.00
2018-08-23T02:50:15.064Z,0.00
2018-08-23T02:51:15.029Z,0.00
2018-08-23T02:52:15.017Z,0.00
2018-08-23T02:53:15.008Z,0.00
2018-08-23T02:54:14.999Z,0.00
2018-08-23T02:55:14.985Z,0.00
2018-08-23T02:56:14.989Z,0.00
2018-08-23T02:57:14.964Z,0.00
2018-08-23T02:58:14.951Z,0.00
2018-08-23T02:59:14.946Z,0.00
2018-08-23T03:00:14.930Z,0.00
2018-08-23T03:01:14.933Z,0.00
2018-08-23T03:02:14.909Z,0.00
2018-08-23T03:03:14.898Z,0.00
2018-08-23T03:04:14.887Z,0.00
2018-08-23T03:05:14.874Z,0.00
2018-08-23T03:06:14.884Z,0.00
2018-08-23T03:07:14.851Z,0.00
2018-08-23T03:08:14.840Z,0.00
2018-08-23T03:09:14.832Z,0.00
2018-08-23T03:10:14.817Z,0.00
2018-08-23T03:11:14.809Z,0.00
2018-08-23T03:12:14.809Z,0.00
2018-08-23T03:13:14.786Z,0.00
2018-08-23T03:14:14.885Z,0.00
2018-08-23T03:15:14.762Z,0.00
2018-08-23T03:16:14.750Z,0.00
2018-08-23T03:17:14.756Z,0.00
2018-08-23T03:18:14.732Z,0.00
2018-08-23T03:19:14.731Z,0.00
2018-08-23T03:20:14.710Z,0.00
2018-08-23T03:21:14.697Z,0.00
2018-08-23T03:22:14.683Z,0.00
2018-08-23T03:23:14.685Z,0.00
2018-08-23T03:24:14.661Z,0.00
2018-08-23T03:25:14.650Z,0.00
2018-08-23T03:26:14.641Z,0.00
2018-08-23T03:27:14.631Z,0.00
2018-08-23T03:28:14.633Z,0.00
2018-08-23T03:29:14.608Z,0.00
2018-08-23T03:30:14.597Z,0.00
2018-08-23T03:31:14.585Z,0.00
2018-08-23T03:32:14.573Z,0.00
2018-08-23T03:33:14.584Z,0.00
2018-08-23T03:34:14.555Z,0.00
2018-08-23T03:35:14.540Z,0.00
2018-08-23T03:36:14.533Z,0.00
2018-08-23T03:37:14.520Z,0.00
2018-08-23T03:38:14.513Z,0.00
2018-08-23T03:39:14.519Z,0.00
2018-08-23T03:40:14.487Z,0.00
2018-08-23T03:41:14.474Z,0.00
2018-08-23T03:42:14.466Z,0.00
2018-08-23T03:43:14.454Z,0.00
2018-08-23T03:44:14.443Z,0.00
2018-08-23T03:45:14.444Z,0.00
2018-08-23T03:46:14.417Z,0.00
2018-08-23T03:47:14.407Z,0.00
2018-08-23T03:48:14.398Z,0.00
2018-08-23T03:49:14.389Z,0.00
2018-08-23T03:50:14.376Z,0.00
2018-08-23T03:51:14.377Z,0.00
2018-08-23T03:52:14.349Z,0.00
2018-08-23T03:53:14.341Z,0.00
2018-08-23T03:54:14.330Z,0.00
2018-08-23T03:55:14.316Z,0.00
2018-08-23T03:56:14.322Z,0.00
2018-08-23T03:57:14.293Z,0.00
2018-08-23T03:58:14.284Z,0.00
2018-08-23T03:59:14.270Z,0.00
2018-08-23T04:00:14.261Z,0.00
2018-08-23T04:01:14.293Z,0.00
2018-08-23T04:02:14.239Z,0.00
2018-08-23T04:03:14.228Z,0.00
2018-08-23T04:04:14.216Z,0.00
2018-08-23T04:05:14.207Z,0.00
2018-08-23T04:06:14.190Z,0.00
2018-08-23T04:07:14.197Z,0.00
2018-08-23T04:08:14.170Z,0.00
2018-08-23T04:09:14.158Z,0.00
2018-08-23T04:10:14.146Z,0.00
2018-08-23T04:11:14.134Z,0.00
2018-08-23T04:12:14.139Z,0.00
2018-08-23T04:13:14.115Z,0.00
2018-08-23T04:14:14.100Z,5.62
2018-08-23T04:15:14.107Z,5.62
2018-08-23T04:16:14.080Z,5.62
2018-08-23T04:17:14.088Z,5.62
2018-08-23T04:18:14.055Z,5.62
2018-08-23T04:19:14.043Z,5.62
2018-08-23T04:20:14.033Z,5.62
2018-08-23T04:21:14.019Z,11.25
2018-08-23T04:22:14.010Z,11.25
2018-08-23T04:23:14.015Z,11.25
2018-08-23T04:24:13.987Z,11.25
2018-08-23T04:25:13.975Z,11.25
2018-08-23T04:26:13.966Z,16.88
2018-08-23T04:27:13.952Z,16.88
2018-08-23T04:28:13.958Z,16.88
2018-08-23T04:29:13.931Z,16.88
2018-08-23T04:30:13.964Z,22.50
2018-08-23T04:31:13.914Z,22.50
2018-08-23T04:32:13.904Z,22.50
2018-08-23T04:33:13.900Z,28.12
2018-08-23T04:34:13.875Z,28.12
2018-08-23T04:35:13.866Z,28.12
2018-08-23T04:36:13.853Z,28.12
2018-08-23T04:37:13.964Z,33.75
2018-08-23T04:38:13.845Z,33.75
2018-08-23T04:39:13.817Z,33.75
2018-08-23T04:40:13.806Z,39.38
2018-08-23T04:41:13.812Z,39.38
2018-08-23T04:42:13.784Z,39.38
2018-08-23T04:43:13.824Z,45.00
2018-08-23T04:44:13.759Z,45.00
2018-08-23T04:45:13.749Z,45.00
2018-08-23T04:46:13.781Z,50.62
2018-08-23T04:47:13.773Z,50.62
2018-08-23T04:48:13.739Z,50.62
2018-08-23T04:49:13.707Z,56.25
2018-08-23T04:50:13.705Z,56.25
2018-08-23T04:51:13.681Z,56.25
2018-08-23T04:52:13.683Z,61.88
2018-08-23T04:53:13.673Z,61.88
2018-08-23T04:54:13.658Z,61.88
2018-08-23T04:55:13.637Z,67.50
2018-08-23T04:56:13.629Z,67.50
2018-08-23T04:57:13.666Z,67.50
2018-08-23T04:58:13.602Z,73.12
2018-08-23T04:59:13.615Z,73.12
2018-08-23T05:00:13.580Z,73.12
2018-08-23T05:01:13.584Z,78.75
2018-08-23T05:02:13.558Z,78.75
2018-08-23T05:03:13.556Z,84.38
2018-08-23T05:04:13.539Z,84.38
2018-08-23T05:05:13.539Z,90.00
2018-08-23T05:06:13.649Z,90.00
2018-08-23T05:07:13.505Z,95.62
2018-08-23T05:08:13.495Z,95.62
2018-08-23T05:09:13.479Z,95.62
2018-08-23T05:10:13.484Z,101.25
2018-08-23T05:11:13.471Z,101.25
2018-08-23T05:12:13.463Z,106.88
2018-08-23T05:13:13.437Z,112.50
2018-08-23T05:14:13.425Z,112.50
2018-08-23T05:15:13.418Z,118.12
2018-08-23T05:16:13.421Z,118.12
2018-08-23T05:17:13.391Z,123.75
2018-08-23T05:18:13.381Z,123.75
2018-08-23T05:19:13.367Z,129.38
2018-08-23T05:20:13.359Z,129.38
2018-08-23T05:21:13.360Z,135.00
2018-08-23T05:22:13.335Z,140.62
2018-08-23T05:23:13.336Z,146.25
2018-08-23T05:24:13.313Z,146.25
2018-08-23T05:25:13.301Z,151.88
2018-08-23T05:26:13.315Z,157.50
2018-08-23T05:27:13.279Z,163.12
2018-08-23T05:28:13.266Z,168.75
2018-08-23T05:29:13.253Z,174.38
2018-08-23T05:30:13.246Z,180.00
2018-08-23T05:31:13.232Z,180.00
2018-08-23T05:32:13.239Z,185.62
2018-08-23T05:33:13.211Z,191.25
2018-08-23T05:34:13.198Z,196.88
2018-08-23T05:35:13.189Z,202.50
2018-08-23T05:36:13.174Z,208.12
2018-08-23T05:37:13.177Z,213.75
2018-08-23T05:38:13.169Z,219.38
2018-08-23T05:39:13.158Z,225.00
2018-08-23T05:40:13.131Z,225.00
2018-08-23T05:41:13.120Z,230.62
2018-08-23T05:42:13.129Z,236.25
2018-08-23T05:43:13.100Z,241.88
2018-08-23T05:44:13.090Z,247.50
2018-08-23T05:45:13.076Z,253.12
2018-08-23T05:46:13.066Z,270.00
2018-08-23T05:47:13.058Z,270.00
2018-08-23T05:48:13.065Z,275.62
2018-08-23T05:49:13.033Z,281.25
2018-08-23T05:50:13.024Z,286.88
2018-08-23T05:51:13.011Z,292.50
2018-08-23T05:52:13.002Z,298.12
2018-08-23T05:53:12.990Z,303.75
2018-08-23T05:54:12.994Z,309.38
2018-08-23T05:55:12.971Z,309.38
2018-08-23T05:56:13.003Z,320.62
2018-08-23T05:57:12.949Z,320.62
2018-08-23T05:58:12.938Z,326.25
2018-08-23T05:59:12.927Z,326.25
2018-08-23T06:00:12.913Z,331.88
2018-08-23T06:01:12.904Z,343.12
2018-08-23T06:02:12.911Z,360.00
2018-08-23T06:03:12.884Z,365.62
2018-08-23T06:04:12.870Z,376.88
2018-08-23T06:05:12.859Z,376.88
2018-08-23T06:06:12.849Z,382.50
2018-08-23T06:07:12.842Z,388.12
2018-08-23T06:08:12.894Z,399.38
2018-08-23T06:09:12.818Z,416.25
2018-08-23T06:10:12.805Z,427.50
2018-08-23T06:11:12.797Z,444.38
2018-08-23T06:12:12.785Z,450.00
2018-08-23T06:13:12.775Z,421.88
2018-08-23T06:14:12.859Z,371.25
2018-08-23T06:15:12.750Z,326.25
2018-08-23T06:16:12.742Z,309.38
2018-08-23T06:17:12.728Z,298.12
2018-08-23T06:18:12.720Z,298.12
2018-08-23T06:19:12.706Z,315.00
2018-08-23T06:20:12.716Z,331.88
2018-08-23T06:21:12.687Z,343.12
2018-08-23T06:22:12.676Z,331.88
2018-08-23T06:23:12.663Z,303.75
2018-08-23T06:24:12.657Z,286.88
2018-08-23T06:25:12.658Z,292.50
2018-08-23T06:26:12.630Z,315.00
2018-08-23T06:27:12.631Z,326.25
2018-08-23T06:28:12.610Z,337.50
2018-08-23T06:29:12.613Z,337.50
2018-08-23T06:30:12.590Z,343.12
2018-08-23T06:31:12.576Z,360.00
2018-08-23T06:32:12.564Z,371.25
2018-08-23T06:33:12.803Z,360.00
2018-08-23T06:34:12.567Z,354.38
2018-08-23T06:35:12.532Z,360.00
2018-08-23T06:36:12.521Z,348.75
2018-08-23T06:37:12.533Z,348.75
2018-08-23T06:38:12.498Z,371.25
2018-08-23T06:39:12.490Z,405.00
2018-08-23T06:40:12.479Z,438.75
2018-08-23T06:41:12.469Z,500.62
2018-08-23T06:42:12.459Z,517.50
2018-08-23T06:43:12.460Z,545.62
2018-08-23T06:44:12.437Z,590.62
2018-08-23T06:45:12.443Z,641.25
2018-08-23T06:46:12.474Z,669.38
2018-08-23T06:47:12.402Z,703.12
2018-08-23T06:48:12.406Z,697.50
2018-08-23T06:49:12.409Z,691.88
2018-08-23T06:50:12.381Z,697.50
2018-08-23T06:51:12.444Z,624.38
2018-08-23T06:52:12.385Z,556.88
2018-08-23T06:53:12.337Z,523.12
2018-08-23T06:54:12.325Z,517.50
2018-08-23T06:55:12.315Z,500.62
2018-08-23T06:56:12.304Z,478.12
2018-08-23T06:57:12.310Z,483.75
2018-08-23T06:58:12.283Z,500.62
2018-08-23T06:59:12.270Z,506.25
2018-08-23T07:00:12.259Z,495.00
2018-08-23T07:01:12.246Z,511.88
2018-08-23T07:02:12.235Z,556.88
2018-08-23T07:03:12.267Z,624.38
2018-08-23T07:04:12.213Z,596.25
2018-08-23T07:05:12.206Z,573.75
2018-08-23T07:06:12.193Z,590.62
2018-08-23T07:07:12.198Z,601.88
2018-08-23T07:08:12.171Z,624.38
2018-08-23T07:09:12.172Z,675.00
2018-08-23T07:10:12.147Z,708.75
2018-08-23T07:11:12.138Z,826.88
2018-08-23T07:12:12.128Z,832.50
2018-08-23T07:13:12.117Z,798.75
2018-08-23T07:14:12.120Z,708.75
2018-08-23T07:15:12.092Z,579.38
2018-08-23T07:16:12.084Z,517.50
2018-08-23T07:17:12.117Z,534.38
2018-08-23T07:18:12.061Z,596.25
2018-08-23T07:19:12.071Z,630.00
2018-08-23T07:20:12.036Z,618.75
2018-08-23T07:21:12.024Z,618.75
2018-08-23T07:22:12.018Z,624.38
2018-08-23T07:23:12.007Z,618.75
2018-08-23T07:24:12.029Z,652.50
2018-08-23T07:25:12.007Z,630.00
2018-08-23T07:26:12.011Z,630.00
2018-08-23T07:27:11.963Z,618.75
2018-08-23T07:28:11.956Z,579.38
2018-08-23T07:29:11.940Z,585.00
2018-08-23T07:30:11.974Z,607.50
2018-08-23T07:31:11.920Z,613.12
2018-08-23T07:32:11.909Z,601.88
2018-08-23T07:33:11.926Z,579.38
2018-08-23T07:34:11.890Z,579.38
2018-08-23T07:35:11.891Z,585.00
2018-08-23T07:36:11.869Z,607.50
2018-08-23T07:37:11.856Z,607.50
2018-08-23T07:38:11.847Z,601.88
2018-08-23T07:39:11.879Z,613.12
2018-08-23T07:40:11.842Z,618.75
2018-08-23T07:41:11.816Z,635.62
2018-08-23T07:42:11.822Z,691.88
2018-08-23T07:43:11.931Z,669.38
2018-08-23T07:44:11.784Z,630.00
2018-08-23T07:45:11.773Z,658.12
2018-08-23T07:46:11.763Z,697.50
2018-08-23T07:47:11.753Z,708.75
2018-08-23T07:48:11.759Z,680.62
2018-08-23T07:49:11.729Z,669.38
2018-08-23T07:50:11.717Z,691.88
2018-08-23T07:51:11.709Z,708.75
2018-08-23T07:52:11.712Z,748.12
2018-08-23T07:53:11.711Z,770.62
2018-08-23T07:54:11.677Z,748.12
2018-08-23T07:55:11.665Z,680.62
2018-08-23T07:56:11.653Z,652.50
2018-08-23T07:57:11.658Z,663.75
2018-08-23T07:58:11.629Z,663.75
2018-08-23T07:59:11.617Z,680.62
2018-08-23T08:00:11.608Z,686.25
2018-08-23T08:01:11.595Z,708.75
2018-08-23T08:02:11.585Z,781.88
2018-08-23T08:03:11.592Z,849.38
2018-08-23T08:04:11.563Z,905.62
2018-08-23T08:05:11.550Z,900.00
2018-08-23T08:06:11.541Z,815.62
2018-08-23T08:07:11.533Z,787.50
2018-08-23T08:08:11.533Z,804.38
2018-08-23T08:09:11.507Z,781.88
2018-08-23T08:10:11.493Z,731.25
2018-08-23T08:11:11.487Z,703.12
2018-08-23T08:12:11.512Z,736.88
2018-08-23T08:13:11.474Z,753.75
2018-08-23T08:14:11.449Z,776.25
2018-08-23T08:15:11.602Z,742.50
2018-08-23T08:16:11.426Z,731.25
2018-08-23T08:17:11.423Z,725.62
2018-08-23T08:18:11.420Z,742.50
2018-08-23T08:19:11.394Z,765.00
2018-08-23T08:20:11.383Z,804.38
2018-08-23T08:21:11.369Z,860.62
2018-08-23T08:22:11.361Z,860.62
2018-08-23T08:23:11.387Z,821.25
2018-08-23T08:24:11.336Z,804.38
2018-08-23T08:25:11.325Z,759.38
2018-08-23T08:26:11.315Z,725.62
2018-08-23T08:27:11.357Z,703.12
2018-08-23T08:28:11.293Z,697.50
2018-08-23T08:29:11.321Z,691.88
2018-08-23T08:30:11.270Z,720.00
2018-08-23T08:31:11.259Z,765.00
2018-08-23T08:32:11.250Z,826.88
2018-08-23T08:33:11.350Z,888.75
2018-08-23T08:34:11.227Z,973.12
2018-08-23T08:35:11.240Z,945.00
2018-08-23T08:36:11.206Z,990.00
2018-08-23T08:37:11.193Z,1051.88
2018-08-23T08:38:11.185Z,1074.38
2018-08-23T08:39:11.172Z,1203.75
2018-08-23T08:40:11.159Z,1108.12
2018-08-23T08:41:11.165Z,1091.25
2018-08-23T08:42:11.138Z,1091.25
2018-08-23T08:43:11.128Z,1119.38
2018-08-23T08:44:11.116Z,1153.12
2018-08-23T08:45:11.122Z,1181.25
2018-08-23T08:46:11.099Z,1260.00
2018-08-23T08:47:11.101Z,1451.25
2018-08-23T08:48:11.077Z,1338.75
2018-08-23T08:49:11.065Z,1344.38
2018-08-23T08:50:11.053Z,1591.88
2018-08-23T08:51:11.043Z,1608.75
2018-08-23T08:52:11.050Z,1580.62
2018-08-23T08:53:11.022Z,1777.50
2018-08-23T08:54:11.009Z,1850.62
2018-08-23T08:55:10.999Z,1968.75
2018-08-23T08:56:10.988Z,2002.50
2018-08-23T08:57:11.100Z,1901.25
2018-08-23T08:58:10.981Z,2036.25
2018-08-23T08:59:10.958Z,2064.38
2018-08-23T09:00:10.948Z,2081.25
2018-08-23T09:01:10.937Z,2019.38
2018-08-23T09:02:10.927Z,2047.50
2018-08-23T09:03:10.999Z,2092.50
2018-08-23T09:04:10.904Z,2295.00
2018-08-23T09:05:10.894Z,2295.00
2018-08-23T09:06:10.882Z,2345.62
2018-08-23T09:07:10.877Z,2221.88
2018-08-23T09:08:10.863Z,2036.25
2018-08-23T09:09:10.873Z,1845.00
2018-08-23T09:10:10.842Z,1175.62
2018-08-23T09:11:10.829Z,1873.12
2018-08-23T09:12:10.818Z,2143.12
2018-08-23T09:13:10.809Z,2188.12
2018-08-23T09:14:10.798Z,2311.88
2018-08-23T09:15:10.804Z,2536.88
2018-08-23T09:16:10.776Z,2441.25
2018-08-23T09:17:10.781Z,2401.88
2018-08-23T09:18:10.755Z,1231.88
2018-08-23T09:19:10.750Z,1220.62
2018-08-23T09:20:10.752Z,1327.50
2018-08-23T09:21:10.725Z,1254.38
2018-08-23T09:22:10.715Z,1220.62
2018-08-23T09:23:10.702Z,1231.88
2018-08-23T09:24:10.695Z,2086.88
2018-08-23T09:25:10.745Z,1321.88
2018-08-23T09:26:10.671Z,1175.62
2018-08-23T09:27:10.691Z,1383.75
2018-08-23T09:28:10.650Z,1411.88
2018-08-23T09:29:10.642Z,2266.88
2018-08-23T09:30:10.639Z,1890.00
2018-08-23T09:31:10.633Z,2508.75
2018-08-23T09:32:10.667Z,2604.38
2018-08-23T09:33:10.626Z,2621.25
2018-08-23T09:34:10.587Z,2413.12
2018-08-23T09:35:10.681Z,2683.12
2018-08-23T09:36:10.569Z,2531.25
2018-08-23T09:37:10.558Z,1715.62
2018-08-23T09:38:10.543Z,1805.62
2018-08-23T09:39:10.550Z,1040.62
2018-08-23T09:40:10.525Z,995.62
2018-08-23T09:41:10.515Z,1113.75
2018-08-23T09:42:10.504Z,1271.25
2018-08-23T09:43:10.500Z,1254.38
2018-08-23T09:44:10.522Z,1518.75
2018-08-23T09:45:10.472Z,1383.75
2018-08-23T09:46:10.464Z,2407.50
2018-08-23T09:47:10.452Z,1653.75
2018-08-23T09:48:10.441Z,2233.12
2018-08-23T09:49:10.430Z,1597.50
2018-08-23T09:50:10.513Z,1282.50
2018-08-23T09:51:10.540Z,1096.88
2018-08-23T09:52:10.403Z,1080.00
2018-08-23T09:53:10.391Z,1164.38
2018-08-23T09:54:10.378Z,1411.88
2018-08-23T09:55:10.371Z,1980.00
2018-08-23T09:56:10.370Z,2896.88
2018-08-23T09:57:10.343Z,2075.62
2018-08-23T09:58:10.348Z,2655.00
2018-08-23T09:59:10.325Z,2182.50
2018-08-23T10:00:10.316Z,2795.62
2018-08-23T10:01:10.309Z,1816.88
2018-08-23T10:02:10.305Z,2986.88
2018-08-23T10:03:10.284Z,3009.38
2018-08-23T10:04:10.279Z,3105.00
2018-08-23T10:05:10.260Z,3110.62
2018-08-23T10:06:10.256Z,2902.50
2018-08-23T10:07:10.256Z,1653.75
2018-08-23T10:08:10.231Z,2908.12
2018-08-23T10:09:10.219Z,1760.62
2018-08-23T10:10:10.213Z,2418.75
2018-08-23T10:11:10.200Z,2970.00
2018-08-23T10:12:10.207Z,3206.25
2018-08-23T10:13:10.192Z,2266.88
2018-08-23T10:14:10.166Z,1681.88
2018-08-23T10:15:10.162Z,2925.00
2018-08-23T10:16:10.148Z,3060.00
2018-08-23T10:17:10.136Z,1923.75
2018-08-23T10:18:10.150Z,1220.62
2018-08-23T10:19:10.116Z,1018.12
2018-08-23T10:20:10.109Z,1040.62
2018-08-23T10:21:10.093Z,1113.75
2018-08-23T10:22:10.084Z,2458.12
2018-08-23T10:23:10.072Z,928.12
2018-08-23T10:24:10.076Z,950.62
2018-08-23T10:25:10.051Z,1186.88
2018-08-23T10:26:10.042Z,3121.88
2018-08-23T10:27:10.032Z,3082.50
2018-08-23T10:28:10.022Z,3183.75
2018-08-23T10:29:10.024Z,3352.50
2018-08-23T10:30:10.000Z,3228.75
2018-08-23T10:31:09.988Z,3256.88
2018-08-23T10:32:10.050Z,3065.62
2018-08-23T10:33:09.970Z,2660.62
2018-08-23T10:34:09.973Z,1530.00
2018-08-23T10:35:09.948Z,1456.88
2018-08-23T10:36:09.941Z,1198.12
2018-08-23T10:37:09.926Z,2677.50
2018-08-23T10:38:09.979Z,1721.25
2018-08-23T10:39:09.921Z,3178.12
2018-08-23T10:40:09.897Z,3245.62
2018-08-23T10:41:09.899Z,3110.62
2018-08-23T10:42:09.875Z,3015.00
2018-08-23T10:43:09.868Z,2936.25
2018-08-23T10:44:09.925Z,2868.75
2018-08-23T10:45:09.861Z,3037.50
2018-08-23T10:46:09.836Z,3459.38
2018-08-23T10:47:09.823Z,3538.12
2018-08-23T10:48:09.815Z,3273.75
2018-08-23T10:49:09.804Z,3442.50
2018-08-23T10:50:09.840Z,3459.38
2018-08-23T10:51:09.865Z,3414.38
2018-08-23T10:52:09.770Z,3330.00
2018-08-23T10:53:09.765Z,3448.12
2018-08-23T10:54:09.768Z,3290.62
2018-08-23T10:55:09.742Z,3408.75
2018-08-23T10:56:09.746Z,3335.62
2018-08-23T10:57:09.722Z,3341.25
2018-08-23T10:58:09.710Z,3290.62
2018-08-23T10:59:09.799Z,3273.75
2018-08-23T11:00:09.689Z,3031.88
2018-08-23T11:01:09.697Z,3420.00
2018-08-23T11:02:09.669Z,3425.62
2018-08-23T11:03:09.672Z,3369.38
2018-08-23T11:04:09.648Z,3414.38
2018-08-23T11:05:09.641Z,3256.88
2018-08-23T11:06:09.646Z,3363.75
2018-08-23T11:07:09.619Z,3391.88
2018-08-23T11:08:09.611Z,3442.50
2018-08-23T11:09:09.599Z,3397.50
2018-08-23T11:10:09.589Z,3324.38
2018-08-23T11:11:09.598Z,3150.00
2018-08-23T11:12:09.568Z,3037.50
2018-08-23T11:13:09.572Z,3065.62
2018-08-23T11:14:09.548Z,3228.75
2018-08-23T11:15:09.537Z,3431.25
2018-08-23T11:16:09.554Z,3571.88
2018-08-23T11:17:09.599Z,3560.62
2018-08-23T11:18:09.509Z,3577.50
2018-08-23T11:19:09.497Z,3453.75
2018-08-23T11:20:09.488Z,3093.75
2018-08-23T11:21:09.477Z,3476.25
2018-08-23T11:22:09.496Z,3234.38
2018-08-23T11:23:09.479Z,3453.75
2018-08-23T11:24:09.450Z,3577.50
2018-08-23T11:25:09.448Z,3566.25
2018-08-23T11:26:09.430Z,3431.25
2018-08-23T11:27:09.416Z,3211.88
2018-08-23T11:28:09.446Z,1839.38
2018-08-23T11:29:09.402Z,1248.75
2018-08-23T11:30:09.392Z,1327.50
2018-08-23T11:31:09.379Z,1575.00
2018-08-23T11:32:09.368Z,1524.38
2018-08-23T11:33:09.360Z,3425.62
2018-08-23T11:34:09.369Z,3279.38
2018-08-23T11:35:09.362Z,2508.75
2018-08-23T11:36:09.328Z,3335.62
2018-08-23T11:37:09.320Z,3380.62
2018-08-23T11:38:09.307Z,3408.75
2018-08-23T11:39:09.295Z,2210.62
2018-08-23T11:40:09.304Z,2576.25
2018-08-23T11:41:09.276Z,1620.00
2018-08-23T11:42:09.269Z,3442.50
2018-08-23T11:43:09.258Z,2261.25
2018-08-23T11:44:09.261Z,3093.75
2018-08-23T11:45:09.236Z,2998.12
2018-08-23T11:46:09.226Z,2182.50
2018-08-23T11:47:09.215Z,3037.50
2018-08-23T11:48:09.211Z,2508.75
2018-08-23T11:49:09.211Z,2671.88
2018-08-23T11:50:09.203Z,3217.50
2018-08-23T11:51:09.178Z,3330.00
2018-08-23T11:52:09.166Z,3279.38
2018-08-23T11:53:09.260Z,3352.50
2018-08-23T11:54:09.149Z,3346.88
2018-08-23T11:55:09.154Z,3431.25
2018-08-23T11:56:09.123Z,3408.75
2018-08-23T11:57:09.113Z,3459.38
2018-08-23T11:58:09.201Z,3571.88
2018-08-23T11:59:09.160Z,3285.00
2018-08-23T12:00:09.104Z,3211.88
2018-08-23T12:01:09.076Z,2919.38
2018-08-23T12:02:09.078Z,3313.12
2018-08-23T12:03:09.061Z,3577.50
2018-08-23T12:04:09.044Z,3268.12
2018-08-23T12:05:09.053Z,2536.88
2018-08-23T12:06:09.022Z,2486.25
2018-08-23T12:07:09.012Z,1625.62
2018-08-23T12:08:09.002Z,2930.62
2018-08-23T12:09:08.994Z,1350.00
2018-08-23T12:10:08.984Z,1276.88
2018-08-23T12:11:08.989Z,1260.00
2018-08-23T12:12:08.983Z,1395.00
2018-08-23T12:13:08.968Z,2030.62
2018-08-23T12:14:08.941Z,3318.75
2018-08-23T12:15:08.931Z,3301.88
2018-08-23T12:16:08.923Z,2053.12
2018-08-23T12:17:08.926Z,3026.25
2018-08-23T12:18:08.900Z,2143.12
2018-08-23T12:19:08.908Z,2491.88
2018-08-23T12:20:08.880Z,2930.62
2018-08-23T12:21:08.886Z,3200.62
2018-08-23T12:22:08.876Z,3155.62
2018-08-23T12:23:08.854Z,2902.50
2018-08-23T12:24:08.847Z,3234.38
2018-08-23T12:25:08.830Z,3330.00
2018-08-23T12:26:08.823Z,3150.00
2018-08-23T12:27:08.822Z,3110.62
2018-08-23T12:28:08.816Z,2823.75
2018-08-23T12:29:08.806Z,1147.50
2018-08-23T12:30:08.788Z,1496.25
2018-08-23T12:31:08.772Z,1434.38
2018-08-23T12:32:08.759Z,1800.00
2018-08-23T12:33:08.751Z,1535.62
2018-08-23T12:34:08.753Z,1530.00
2018-08-23T12:35:08.728Z,3121.88
2018-08-23T12:36:08.733Z,3313.12
2018-08-23T12:37:08.709Z,3223.12
2018-08-23T12:38:08.712Z,3251.25